NCAR-RAP Real-Time Weather Data

Output produced by METARs form (30 April 2017  15:08 UTC)
found at http://weather.rap.ucar.edu/surface/
 
Conditions at: KORL observed 30 April 2017  14:53 UTC
Temperature: 27.2°C (81°F)
Dewpoint: 19.4°C (67°F) [RH = 62%]
Pressure (altimeter): 30.13 inches Hg (1020.4 mb)
[Sea-level pressure: 1020.5 mb]
Winds: from the SSE (160 degrees) at 15 MPH (13 knots; 6.8 m/s)
Visibility: 10 or more miles (16+ km)
Ceiling: at least 12,000 feet AGL
Clouds: scattered clouds at 3000 feet AGL
Present Weather: no significant weather observed at this time
KORL 301453Z 16013KT 10SM SCT030 27/19 A3013 RMK AO2 SLP205 T02720194 55005

Conditions at: KORL observed 30 April 2017  13:53 UTC
Temperature: 26.1°C (79°F)
Dewpoint: 20.6°C (69°F) [RH = 72%]
Pressure (altimeter): 30.12 inches Hg (1020.1 mb)
[Sea-level pressure: 1020.3 mb]
Winds: from the SE (140 degrees) at 14 MPH (12 knots; 6.2 m/s)
Visibility: 10 or more miles (16+ km)
Ceiling: at least 12,000 feet AGL
Clouds: few clouds at 2300 feet AGL
Present Weather: no significant weather observed at this time
KORL 301353Z 14012KT 10SM FEW023 26/21 A3012 RMK AO2 SLP203 T02610206

Conditions at: KORL observed 30 April 2017  12:53 UTC
Temperature: 24.4°C (76°F)
Dewpoint: 20.6°C (69°F) [RH = 79%]
Pressure (altimeter): 30.13 inches Hg (1020.4 mb)
[Sea-level pressure: 1020.7 mb]
Winds: from the SE (140 degrees) at 12 MPH (10 knots; 5.2 m/s)
Visibility: 10 or more miles (16+ km)
Ceiling: at least 12,000 feet AGL
Clouds: sky clear below 12,000 feet AGL
Present Weather: no significant weather observed at this time
KORL 301253Z 14010KT 10SM CLR 24/21 A3013 RMK AO2 SLP207 T02440206

Conditions at: KORL observed 30 April 2017  11:53 UTC
Temperature: 22.8°C (73°F)
Dewpoint: 21.1°C (70°F) [RH = 90%]
Pressure (altimeter): 30.15 inches Hg (1021.1 mb)
[Sea-level pressure: 1021.1 mb]
Winds: from the SE (130 degrees) at 6 MPH (5 knots; 2.6 m/s)
Visibility: 10 or more miles (16+ km)
Ceiling: at least 12,000 feet AGL
Clouds: scattered clouds at 2100 feet AGL
Present Weather: no significant weather observed at this time
KORL 301153Z 13005KT 10SM SCT021 23/21 A3015 RMK AO2 SLP211 T02280211 10239 20228 53011

Conditions at: KORL observed 30 April 2017  11:43 UTC
Temperature: 22.8°C (73°F)
Dewpoint: 21.1°C (70°F) [RH = 90%]
Pressure (altimeter): 30.14 inches Hg (1020.7 mb)
Winds: from the SE (140 degrees) at 7 MPH (6 knots; 3.1 m/s)
Visibility: 10 or more miles (16+ km)
Ceiling: 2100 feet AGL
Clouds: broken clouds at 2100 feet AGL
Present Weather: no significant weather observed at this time
KORL 301143Z 14006KT 10SM BKN021 23/21 A3014 RMK AO2 T02280211

Conditions at: KORL observed 30 April 2017  10:53 UTC
Temperature: 22.8°C (73°F)
Dewpoint: 21.1°C (70°F) [RH = 90%]
Pressure (altimeter): 30.13 inches Hg (1020.4 mb)
[Sea-level pressure: 1020.5 mb]
Winds: from the SE (130 degrees) at 7 MPH (6 knots; 3.1 m/s)
Visibility: 10 or more miles (16+ km)
Ceiling: at least 12,000 feet AGL
Clouds: sky clear below 12,000 feet AGL
Present Weather: no significant weather observed at this time
KORL 301053Z 13006KT 10SM CLR 23/21 A3013 RMK AO2 SLP205 T02280211

Conditions at: KORL observed 30 April 2017  09:53 UTC
Temperature: 23.3°C (74°F)
Dewpoint: 21.1°C (70°F) [RH = 87%]
Pressure (altimeter): 30.11 inches Hg (1019.7 mb)
[Sea-level pressure: 1019.9 mb]
Winds: from the SE (130 degrees) at 7 MPH (6 knots; 3.1 m/s)
Visibility: 10 or more miles (16+ km)
Ceiling: at least 12,000 feet AGL
Clouds: sky clear below 12,000 feet AGL
Present Weather: automated observation with no human augmentation;
there may or may not be significant weather present at this time
KORL 300953Z AUTO 13006KT 10SM CLR 23/21 A3011 RMK AO2 SLP199 T02330211

Conditions at: KORL observed 30 April 2017  08:53 UTC
Temperature: 23.3°C (74°F)
Dewpoint: 21.1°C (70°F) [RH = 87%]
Pressure (altimeter): 30.11 inches Hg (1019.7 mb)
[Sea-level pressure: 1019.9 mb]
Winds: from the SE (130 degrees) at 9 MPH (8 knots; 4.2 m/s)
Visibility: 10 or more miles (16+ km)
Ceiling: at least 12,000 feet AGL
Clouds: sky clear below 12,000 feet AGL
Present Weather: automated observation with no human augmentation;
there may or may not be significant weather present at this time
KORL 300853Z AUTO 13008KT 10SM CLR 23/21 A3011 RMK AO2 SLP199 T02330211 55003

Conditions at: KORL observed 30 April 2017  07:53 UTC
Temperature: 23.9°C (75°F)
Dewpoint: 21.1°C (70°F) [RH = 84%]
Pressure (altimeter): 30.10 inches Hg (1019.4 mb)
[Sea-level pressure: 1019.4 mb]
Winds: from the SE (130 degrees) at 9 MPH (8 knots; 4.2 m/s)
Visibility: 10 or more miles (16+ km)
Ceiling: 7000 feet AGL
Clouds: overcast cloud deck at 7000 feet AGL
Present Weather: automated observation with no human augmentation;
there may or may not be significant weather present at this time
KORL 300753Z AUTO 13008KT 10SM OVC070 24/21 A3010 RMK AO2 SLP194 T02390211

Conditions at: KORL observed 30 April 2017  07:09 UTC
Temperature: 23.9°C (75°F)
Dewpoint: 21.1°C (70°F) [RH = 84%]
Pressure (altimeter): 30.10 inches Hg (1019.4 mb)
Winds: from the ESE (120 degrees) at 8 MPH (7 knots; 3.6 m/s)
Visibility: 10 or more miles (16+ km)
Ceiling: 6000 feet AGL
Clouds: scattered clouds at 1600 feet AGL
scattered clouds at 2300 feet AGL
broken clouds at 6000 feet AGL
Present Weather: automated observation with no human augmentation;
there may or may not be significant weather present at this time
KORL 300709Z AUTO 12007KT 10SM SCT016 SCT023 BKN060 24/21 A3010 RMK AO2 T02390211

Conditions at: KORL observed 30 April 2017  06:53 UTC
Temperature: 23.9°C (75°F)
Dewpoint: 21.1°C (70°F) [RH = 84%]
Pressure (altimeter): 30.11 inches Hg (1019.7 mb)
[Sea-level pressure: 1019.7 mb]
Winds: from the SE (130 degrees) at 8 MPH (7 knots; 3.6 m/s)
Visibility: 10 or more miles (16+ km)
Ceiling: 1800 feet AGL
Clouds: broken clouds at 1800 feet AGL
broken clouds at 2500 feet AGL
Present Weather: automated observation with no human augmentation;
there may or may not be significant weather present at this time
KORL 300653Z AUTO 13007KT 10SM BKN018 BKN025 24/21 A3011 RMK AO2 SLP197 T02390211

Conditions at: KORL observed 30 April 2017  05:53 UTC
Temperature: 23.9°C (75°F)
Dewpoint: 21.7°C (71°F) [RH = 88%]
Pressure (altimeter): 30.12 inches Hg (1020.1 mb)
[Sea-level pressure: 1020.2 mb]
Winds: from the ESE (120 degrees) at 13 MPH (11 knots; 5.7 m/s)
Visibility: 10 or more miles (16+ km)
Ceiling: 6000 feet AGL
Clouds: scattered clouds at 4800 feet AGL
overcast cloud deck at 6000 feet AGL
Present Weather: automated observation with no human augmentation;
there may or may not be significant weather present at this time
KORL 300553Z AUTO 12011KT 10SM SCT048 OVC060 24/22 A3012 RMK AO2 SLP202 T02390217 10267 20233 58007

Conditions at: KORL observed 30 April 2017  04:53 UTC
Temperature: 23.3°C (74°F)
Dewpoint: 21.1°C (70°F) [RH = 87%]
Pressure (altimeter): 30.13 inches Hg (1020.4 mb)
[Sea-level pressure: 1020.5 mb]
Winds: from the ESE (110 degrees) at 9 MPH (8 knots; 4.2 m/s)
Visibility: 10 or more miles (16+ km)
Ceiling: at least 12,000 feet AGL
Clouds: sky clear below 12,000 feet AGL
Present Weather: automated observation with no human augmentation;
there may or may not be significant weather present at this time
KORL 300453Z AUTO 11008KT 10SM CLR 23/21 A3013 RMK AO2 SLP205 T02330211 403390228

Conditions at: KORL observed 30 April 2017  03:53 UTC
Temperature: 23.9°C (75°F)
Dewpoint: 21.1°C (70°F) [RH = 84%]
Pressure (altimeter): 30.14 inches Hg (1020.7 mb)
[Sea-level pressure: 1020.8 mb]
Winds: from the ESE (120 degrees) at 8 MPH (7 knots; 3.6 m/s)
Visibility: 10 or more miles (16+ km)
Ceiling: at least 12,000 feet AGL
Clouds: sky clear below 12,000 feet AGL
Present Weather: automated observation with no human augmentation;
there may or may not be significant weather present at this time
KORL 300353Z AUTO 12007KT 10SM CLR 24/21 A3014 RMK AO2 SLP208 T02390211

Conditions at: KORL observed 30 April 2017  02:53 UTC
Temperature: 24.4°C (76°F)
Dewpoint: 21.1°C (70°F) [RH = 82%]
Pressure (altimeter): 30.14 inches Hg (1020.7 mb)
[Sea-level pressure: 1020.9 mb]
Winds: from the ESE (110 degrees) at 9 MPH (8 knots; 4.2 m/s)
Visibility: 10 or more miles (16+ km)
Ceiling: at least 12,000 feet AGL
Clouds: sky clear below 12,000 feet AGL
Present Weather: automated observation with no human augmentation;
there may or may not be significant weather present at this time
KORL 300253Z AUTO 11008KT 10SM CLR 24/21 A3014 RMK AO2 SLP209 T02440211 51010

Conditions at: KORL observed 30 April 2017  01:53 UTC
Temperature: 24.4°C (76°F)
Dewpoint: 20.6°C (69°F) [RH = 79%]
Pressure (altimeter): 30.14 inches Hg (1020.7 mb)
[Sea-level pressure: 1020.7 mb]
Winds: from the ESE (120 degrees) at 13 MPH (11 knots; 5.7 m/s)
Visibility: 10 or more miles (16+ km)
Ceiling: at least 12,000 feet AGL
Clouds: sky clear below 12,000 feet AGL
Present Weather: no significant weather observed at this time
KORL 300153Z 12011KT 10SM CLR 24/21 A3014 RMK AO2 SLP207 T02440206

Conditions at: KORL observed 30 April 2017  00:53 UTC
Temperature: 25.6°C (78°F)
Dewpoint: 20.6°C (69°F) [RH = 74%]
Pressure (altimeter): 30.13 inches Hg (1020.4 mb)
[Sea-level pressure: 1020.3 mb]
Winds: from the ESE (110 degrees) at 14 MPH (12 knots; 6.2 m/s)
Visibility: 10 or more miles (16+ km)
Ceiling: at least 12,000 feet AGL
Clouds: sky clear below 12,000 feet AGL
Present Weather: no significant weather observed at this time
KORL 300053Z 11012KT 10SM CLR 26/21 A3013 RMK AO2 SLP203 T02560206

Conditions at: KORL observed 29 April 2017  23:53 UTC
Temperature: 26.7°C (80°F)
Dewpoint: 19.4°C (67°F) [RH = 64%]
Pressure (altimeter): 30.11 inches Hg (1019.7 mb)
[Sea-level pressure: 1019.9 mb]
Winds: from the ESE (120 degrees) at 17 MPH (15 knots; 7.8 m/s)
Visibility: 10 or more miles (16+ km)
Ceiling: at least 12,000 feet AGL
Clouds: sky clear below 12,000 feet AGL
Present Weather: no significant weather observed at this time
KORL 292353Z 12015KT 10SM CLR 27/19 A3011 RMK AO2 SLP199 T02670194 10339 20267 53001

Conditions at: KORL observed 29 April 2017  22:53 UTC
Temperature: 28.9°C (84°F)
Dewpoint: 18.9°C (66°F) [RH = 55%]
Pressure (altimeter): 30.11 inches Hg (1019.7 mb)
[Sea-level pressure: 1019.7 mb]
Winds: from the ESE (120 degrees) at 14 MPH (12 knots; 6.2 m/s)
Visibility: 10 or more miles (16+ km)
Ceiling: at least 12,000 feet AGL
Clouds: sky clear below 12,000 feet AGL
Present Weather: no significant weather observed at this time
KORL 292253Z 12012KT 10SM CLR 29/19 A3011 RMK AO2 SLP197 T02890189

Conditions at: KORL observed 29 April 2017  21:53 UTC
Temperature: 31.1°C (88°F)
Dewpoint: 18.3°C (65°F) [RH = 47%]
Pressure (altimeter): 30.10 inches Hg (1019.4 mb)
[Sea-level pressure: 1019.6 mb]
Winds: from the ESE (120 degrees) at 17 MPH (15 knots; 7.8 m/s)
Visibility: 10 or more miles (16+ km)
Ceiling: at least 12,000 feet AGL
Clouds: sky clear below 12,000 feet AGL
Present Weather: no significant weather observed at this time
KORL 292153Z 12015KT 10SM CLR 31/18 A3010 RMK AO2 SLP196 T03110183

Conditions at: KORL observed 29 April 2017  20:53 UTC
Temperature: 32.2°C (90°F)
Dewpoint: 17.8°C (64°F) [RH = 42%]
Pressure (altimeter): 30.11 inches Hg (1019.7 mb)
[Sea-level pressure: 1019.7 mb]
Winds: from the ESE (120 degrees) at 17 MPH (15 knots; 7.8 m/s)
gusting to 25 MPH (22 knots; 11.4 m/s)
Visibility: 10 or more miles (16+ km)
Ceiling: at least 12,000 feet AGL
Clouds: sky clear below 12,000 feet AGL
Present Weather: no significant weather observed at this time
KORL 292053Z 12015G22KT 10SM CLR 32/18 A3011 RMK AO2 SLP197 T03220178 56009

Conditions at: KORL observed 29 April 2017  19:53 UTC
Temperature: 32.2°C (90°F)
Dewpoint: 17.2°C (63°F) [RH = 41%]
Pressure (altimeter): 30.11 inches Hg (1019.7 mb)
[Sea-level pressure: 1019.7 mb]
Winds: from the ESE (110 degrees) at 16 MPH (14 knots; 7.3 m/s)
Visibility: 10 or more miles (16+ km)
Ceiling: at least 12,000 feet AGL
Clouds: few clouds at 5000 feet AGL
Present Weather: no significant weather observed at this time
KORL 291953Z 11014KT 10SM FEW050 32/17 A3011 RMK AO2 SLP197 T03220172

Conditions at: KORL observed 29 April 2017  18:53 UTC
Temperature: 32.8°C (91°F)
Dewpoint: 17.2°C (63°F) [RH = 39%]
Pressure (altimeter): 30.12 inches Hg (1020.1 mb)
[Sea-level pressure: 1020.3 mb]
Winds: from the ESE (120 degrees) at 14 MPH (12 knots; 6.2 m/s)
gusting to 24 MPH (21 knots; 10.9 m/s)
Visibility: 10 or more miles (16+ km)
Ceiling: at least 12,000 feet AGL
Clouds: few clouds at 5000 feet AGL
Present Weather: no significant weather observed at this time
KORL 291853Z 12012G21KT 10SM FEW050 33/17 A3012 RMK AO2 SLP203 T03280172

Conditions at: KORL observed 29 April 2017  17:53 UTC
Temperature: 32.8°C (91°F)
Dewpoint: 17.2°C (63°F) [RH = 39%]
Pressure (altimeter): 30.13 inches Hg (1020.4 mb)
[Sea-level pressure: 1020.6 mb]
Winds: from the SE (140 degrees) at 16 MPH (14 knots; 7.3 m/s)
gusting to 24 MPH (21 knots; 10.9 m/s)
Visibility: 10 or more miles (16+ km)
Ceiling: at least 12,000 feet AGL
Clouds: scattered clouds at 4600 feet AGL
Present Weather: no significant weather observed at this time
KORL 291753Z 14014G21KT 10SM SCT046 33/17 A3013 RMK AO2 SLP206 T03280172 10333 20239 58012

Conditions at: KORL observed 29 April 2017  16:53 UTC
Temperature: 32.2°C (90°F)
Dewpoint: 19.4°C (67°F) [RH = 47%]
Pressure (altimeter): 30.15 inches Hg (1021.1 mb)
[Sea-level pressure: 1021.2 mb]
Winds: from the ESE (110 degrees) at 16 MPH (14 knots; 7.3 m/s)
gusting to 23 MPH (20 knots; 10.4 m/s)
Visibility: 10 or more miles (16+ km)
Ceiling: at least 12,000 feet AGL
Clouds: scattered clouds at 4600 feet AGL
Present Weather: no significant weather observed at this time
KORL 291653Z COR 11014G20KT 10SM SCT046 32/19 A3015 RMK AO2 SLP212 T03220194

Conditions at: KORL observed 29 April 2017  15:53 UTC
Temperature: 30.0°C (86°F)
Dewpoint: 18.9°C (66°F) [RH = 51%]
Pressure (altimeter): 30.17 inches Hg (1021.8 mb)
[Sea-level pressure: 1021.8 mb]
Winds: from the SE (130 degrees) at 13 MPH (11 knots; 5.7 m/s)
Visibility: 10 or more miles (16+ km)
Ceiling: at least 12,000 feet AGL
Clouds: few clouds at 4300 feet AGL
Present Weather: no significant weather observed at this time
KORL 291553Z 13011KT 10SM FEW043 30/19 A3017 RMK AO2 SLP218 T03000189

Conditions at: KORL observed 29 April 2017  14:53 UTC
Temperature: 29.4°C (85°F)
Dewpoint: 19.4°C (67°F) [RH = 55%]
Pressure (altimeter): 30.17 inches Hg (1021.8 mb)
[Sea-level pressure: 1021.9 mb]
Winds: from the SE (140 degrees) at 14 MPH (12 knots; 6.2 m/s)
gusting to 23 MPH (20 knots; 10.4 m/s)
Visibility: 10 or more miles (16+ km)
Ceiling: at least 12,000 feet AGL
Clouds: few clouds at 3200 feet AGL
Present Weather: no significant weather observed at this time
KORL 291453Z 14012G20KT 10SM FEW032 29/19 A3017 RMK AO2 SLP219 T02940194 51006

Conditions at: KORL observed 29 April 2017  13:53 UTC
Temperature: 27.8°C (82°F)
Dewpoint: 20.6°C (69°F) [RH = 65%]
Pressure (altimeter): 30.17 inches Hg (1021.8 mb)
[Sea-level pressure: 1021.7 mb]
Winds: from the SE (130 degrees) at 14 MPH (12 knots; 6.2 m/s)
Visibility: 10 or more miles (16+ km)
Ceiling: at least 12,000 feet AGL
Clouds: few clouds at 2800 feet AGL
Present Weather: no significant weather observed at this time
KORL 291353Z 13012KT 10SM FEW028 28/21 A3017 RMK AO2 SLP217 T02780206

Conditions at: KORL observed 29 April 2017  12:53 UTC
Temperature: 26.1°C (79°F)
Dewpoint: 21.7°C (71°F) [RH = 77%]
Pressure (altimeter): 30.16 inches Hg (1021.4 mb)
[Sea-level pressure: 1021.5 mb]
Winds: from the SE (130 degrees) at 13 MPH (11 knots; 5.7 m/s)
Visibility: 10 or more miles (16+ km)
Ceiling: at least 12,000 feet AGL
Clouds: sky clear below 12,000 feet AGL
Present Weather: no significant weather observed at this time
KORL 291253Z 13011KT 10SM CLR 26/22 A3016 RMK AO2 SLP215 T02610217

Conditions at: KORL observed 29 April 2017  11:53 UTC
Temperature: 23.9°C (75°F)
Dewpoint: 22.2°C (72°F) [RH = 90%]
Pressure (altimeter): 30.15 inches Hg (1021.1 mb)
[Sea-level pressure: 1021.2 mb]
Winds: from the SE (130 degrees) at 10 MPH (9 knots; 4.7 m/s)
Visibility: 10 or more miles (16+ km)
Ceiling: at least 12,000 feet AGL
Clouds: sky clear below 12,000 feet AGL
Present Weather: no significant weather observed at this time
KORL 291153Z 13009KT 10SM CLR 24/22 A3015 RMK AO2 SLP212 T02390222 10239 20228 53012

Conditions at: KORL observed 29 April 2017  10:53 UTC
Temperature: 22.8°C (73°F)
Dewpoint: 21.7°C (71°F) [RH = 94%]
Pressure (altimeter): 30.14 inches Hg (1020.7 mb)
[Sea-level pressure: 1020.8 mb]
Winds: from the ESE (120 degrees) at 8 MPH (7 knots; 3.6 m/s)
Visibility: 10 or more miles (16+ km)
Ceiling: at least 12,000 feet AGL
Clouds: sky clear below 12,000 feet AGL
Present Weather: no significant weather observed at this time
KORL 291053Z 12007KT 10SM CLR 23/22 A3014 RMK AO2 SLP208 T02280217

Conditions at: KORL observed 29 April 2017  09:53 UTC
Temperature: 22.8°C (73°F)
Dewpoint: 21.7°C (71°F) [RH = 94%]
Pressure (altimeter): 30.12 inches Hg (1020.1 mb)
[Sea-level pressure: 1020.2 mb]
Winds: from the SE (130 degrees) at 7 MPH (6 knots; 3.1 m/s)
Visibility: 10 or more miles (16+ km)
Ceiling: at least 12,000 feet AGL
Clouds: sky clear below 12,000 feet AGL
Present Weather: automated observation with no human augmentation;
there may or may not be significant weather present at this time
KORL 290953Z AUTO 13006KT 10SM CLR 23/22 A3012 RMK AO2 SLP202 T02280217

Conditions at: KORL observed 29 April 2017  08:53 UTC
Temperature: 23.3°C (74°F)
Dewpoint: 22.2°C (72°F) [RH = 94%]
Pressure (altimeter): 30.12 inches Hg (1020.1 mb)
[Sea-level pressure: 1020.0 mb]
Winds: from the SE (130 degrees) at 7 MPH (6 knots; 3.1 m/s)
Visibility: 10 or more miles (16+ km)
Ceiling: at least 12,000 feet AGL
Clouds: sky clear below 12,000 feet AGL
Present Weather: automated observation with no human augmentation;
there may or may not be significant weather present at this time
KORL 290853Z AUTO 13006KT 10SM CLR 23/22 A3012 RMK AO2 SLP200 T02330222 55003

Conditions at: KORL observed 29 April 2017  07:53 UTC
Temperature: 23.3°C (74°F)
Dewpoint: 22.2°C (72°F) [RH = 94%]
Pressure (altimeter): 30.11 inches Hg (1019.7 mb)
[Sea-level pressure: 1019.9 mb]
Winds: from the ESE (110 degrees) at 7 MPH (6 knots; 3.1 m/s)
Visibility: 10 or more miles (16+ km)
Ceiling: at least 12,000 feet AGL
Clouds: sky clear below 12,000 feet AGL
Present Weather: automated observation with no human augmentation;
there may or may not be significant weather present at this time
KORL 290753Z AUTO 11006KT 10SM CLR 23/22 A3011 RMK AO2 SLP199 T02330222

Conditions at: KORL observed 29 April 2017  06:53 UTC
Temperature: 23.9°C (75°F)
Dewpoint: 22.2°C (72°F) [RH = 90%]
Pressure (altimeter): 30.12 inches Hg (1020.1 mb)
[Sea-level pressure: 1020.3 mb]
Winds: from the SE (130 degrees) at 7 MPH (6 knots; 3.1 m/s)
Visibility: 10 or more miles (16+ km)
Ceiling: at least 12,000 feet AGL
Clouds: few clouds at 2400 feet AGL
Present Weather: automated observation with no human augmentation;
there may or may not be significant weather present at this time
KORL 290653Z AUTO 13006KT 10SM FEW024 24/22 A3012 RMK AO2 SLP203 T02390222

Conditions at: KORL observed 29 April 2017  06:02 UTC
Temperature: 23.9°C (75°F)
Dewpoint: 22.2°C (72°F) [RH = 90%]
Pressure (altimeter): 30.12 inches Hg (1020.1 mb)
Winds: from the SE (130 degrees) at 8 MPH (7 knots; 3.6 m/s)
Visibility: 10 or more miles (16+ km)
Ceiling: at least 12,000 feet AGL
Clouds: scattered clouds at 2100 feet AGL
Present Weather: automated observation with no human augmentation;
there may or may not be significant weather present at this time
KORL 290602Z AUTO 13007KT 10SM SCT021 24/22 A3012 RMK AO2 T02390222

Conditions at: KORL observed 29 April 2017  05:53 UTC
Temperature: 24.4°C (76°F)
Dewpoint: 22.2°C (72°F) [RH = 88%]
Pressure (altimeter): 30.13 inches Hg (1020.4 mb)
[Sea-level pressure: 1020.3 mb]
Winds: from the ESE (120 degrees) at 8 MPH (7 knots; 3.6 m/s)
Visibility: 10 or more miles (16+ km)
Ceiling: 2300 feet AGL
Clouds: few clouds at 1700 feet AGL
broken clouds at 2300 feet AGL
Present Weather: automated observation with no human augmentation;
there may or may not be significant weather present at this time
KORL 290553Z AUTO 12007KT 10SM FEW017 BKN023 24/22 A3013 RMK AO2 SLP203 T02440222 10283 20239 50001

Conditions at: KORL observed 29 April 2017  04:53 UTC
Temperature: 24.4°C (76°F)
Dewpoint: 22.2°C (72°F) [RH = 88%]
Pressure (altimeter): 30.13 inches Hg (1020.4 mb)
[Sea-level pressure: 1020.6 mb]
Winds: from the SE (140 degrees) at 7 MPH (6 knots; 3.1 m/s)
Visibility: 10 or more miles (16+ km)
Ceiling: 1700 feet AGL
Clouds: overcast cloud deck at 1700 feet AGL
Present Weather: automated observation with no human augmentation;
there may or may not be significant weather present at this time
KORL 290453Z AUTO 14006KT 10SM OVC017 24/22 A3013 RMK AO2 SLP206 T02440222 403560217

Conditions at: KORL observed 29 April 2017  04:38 UTC
Temperature: 24.4°C (76°F)
Dewpoint: 22.2°C (72°F) [RH = 88%]
Pressure (altimeter): 30.13 inches Hg (1020.4 mb)
Winds: from the SE (140 degrees) at 9 MPH (8 knots; 4.2 m/s)
Visibility: 10 or more miles (16+ km)
Ceiling: 1700 feet AGL
Clouds: broken clouds at 1700 feet AGL
Present Weather: automated observation with no human augmentation;
there may or may not be significant weather present at this time
KORL 290438Z AUTO 14008KT 10SM BKN017 24/22 A3013 RMK AO2 T02440222

Conditions at: KORL observed 29 April 2017  03:53 UTC
Temperature: 24.4°C (76°F)
Dewpoint: 21.7°C (71°F) [RH = 85%]
Pressure (altimeter): 30.13 inches Hg (1020.4 mb)
[Sea-level pressure: 1020.4 mb]
Winds: from the SE (140 degrees) at 7 MPH (6 knots; 3.1 m/s)
Visibility: 10 or more miles (16+ km)
Ceiling: at least 12,000 feet AGL
Clouds: sky clear below 12,000 feet AGL
Present Weather: automated observation with no human augmentation;
there may or may not be significant weather present at this time
KORL 290353Z AUTO 14006KT 10SM CLR 24/22 A3013 RMK AO2 SLP204 T02440217

Conditions at: KORL observed 29 April 2017  02:53 UTC
Temperature: 25.0°C (77°F)
Dewpoint: 21.1°C (70°F) [RH = 79%]
Pressure (altimeter): 30.12 inches Hg (1020.1 mb)
[Sea-level pressure: 1020.3 mb]
Winds: from the SE (130 degrees) at 10 MPH (9 knots; 4.7 m/s)
Visibility: 10 or more miles (16+ km)
Ceiling: at least 12,000 feet AGL
Clouds: sky clear below 12,000 feet AGL
Present Weather: automated observation with no human augmentation;
there may or may not be significant weather present at this time
KORL 290253Z AUTO 13009KT 10SM CLR 25/21 A3012 RMK AO2 SLP203 T02500211 51019

Conditions at: KORL observed 29 April 2017  01:53 UTC
Temperature: 25.6°C (78°F)
Dewpoint: 21.1°C (70°F) [RH = 76%]
Pressure (altimeter): 30.11 inches Hg (1019.7 mb)
[Sea-level pressure: 1019.8 mb]
Winds: from the SE (130 degrees) at 14 MPH (12 knots; 6.2 m/s)
Visibility: 10 or more miles (16+ km)
Ceiling: at least 12,000 feet AGL
Clouds: sky clear below 12,000 feet AGL
Present Weather: automated observation with no human augmentation;
there may or may not be significant weather present at this time
KORL 290153Z AUTO 13012KT 10SM CLR 26/21 A3011 RMK AO2 SLP198 T02560211

Conditions at: KORL observed 29 April 2017  00:53 UTC
Temperature: 26.7°C (80°F)
Dewpoint: 20.6°C (69°F) [RH = 69%]
Pressure (altimeter): 30.08 inches Hg (1018.7 mb)
[Sea-level pressure: 1018.9 mb]
Winds: from the ESE (110 degrees) at 13 MPH (11 knots; 5.7 m/s)
Visibility: 10 or more miles (16+ km)
Ceiling: at least 12,000 feet AGL
Clouds: sky clear below 12,000 feet AGL
Present Weather: no significant weather observed at this time
KORL 290053Z 11011KT 10SM CLR 27/21 A3008 RMK AO2 SLP189 T02670206

Conditions at: KORL observed 28 April 2017  23:53 UTC
Temperature: 28.3°C (83°F)
Dewpoint: 19.4°C (67°F) [RH = 59%]
Pressure (altimeter): 30.07 inches Hg (1018.4 mb)
[Sea-level pressure: 1018.3 mb]
Winds: from the ESE (120 degrees) at 14 MPH (12 knots; 6.2 m/s)
Visibility: 10 or more miles (16+ km)
Ceiling: at least 12,000 feet AGL
Clouds: sky clear below 12,000 feet AGL
Present Weather: no significant weather observed at this time
KORL 282353Z 12012KT 10SM CLR 28/19 A3007 RMK AO2 SLP183 T02830194 10356 20283 53010

Conditions at: KORL observed 28 April 2017  22:53 UTC
Temperature: 30.6°C (87°F)
Dewpoint: 18.9°C (66°F) [RH = 50%]
Pressure (altimeter): 30.05 inches Hg (1017.7 mb)
[Sea-level pressure: 1017.9 mb]
Winds: from the ESE (120 degrees) at 15 MPH (13 knots; 6.8 m/s)
Visibility: 10 or more miles (16+ km)
Ceiling: at least 12,000 feet AGL
Clouds: sky clear below 12,000 feet AGL
Present Weather: no significant weather observed at this time
KORL 282253Z 12013KT 10SM CLR 31/19 A3005 RMK AO2 SLP179 T03060189

Conditions at: KORL observed 28 April 2017  21:53 UTC
Temperature: 32.2°C (90°F)
Dewpoint: 19.4°C (67°F) [RH = 47%]
Pressure (altimeter): 30.04 inches Hg (1017.4 mb)
[Sea-level pressure: 1017.6 mb]
Winds: from the ESE (120 degrees) at 14 MPH (12 knots; 6.2 m/s)
gusting to 24 MPH (21 knots; 10.9 m/s)
Visibility: 10 or more miles (16+ km)
Ceiling: at least 12,000 feet AGL
Clouds: sky clear below 12,000 feet AGL
Present Weather: no significant weather observed at this time
KORL 282153Z 12012G21KT 10SM CLR 32/19 A3004 RMK AO2 SLP176 T03220194

Conditions at: KORL observed 28 April 2017  20:53 UTC
Temperature: 33.9°C (93°F)
Dewpoint: 19.4°C (67°F) [RH = 43%]
Pressure (altimeter): 30.04 inches Hg (1017.4 mb)
[Sea-level pressure: 1017.3 mb]
Winds: from the ESE (110 degrees) at 20 MPH (17 knots; 8.8 m/s)
gusting to 28 MPH (24 knots; 12.5 m/s)
Visibility: 10 or more miles (16+ km)
Ceiling: at least 12,000 feet AGL
Clouds: sky clear below 12,000 feet AGL
Present Weather: automated observation with no human augmentation;
there may or may not be significant weather present at this time
KORL 282053Z AUTO 11017G24KT 10SM CLR 34/19 A3004 RMK AO2 SLP173 T03390194 55009

Conditions at: KORL observed 28 April 2017  19:53 UTC
Temperature: 33.9°C (93°F)
Dewpoint: 19.4°C (67°F) [RH = 43%]
Pressure (altimeter): 30.04 inches Hg (1017.4 mb)
[Sea-level pressure: 1017.3 mb]
Winds: from the ESE (120 degrees) at 13 MPH (11 knots; 5.7 m/s)
gusting to 23 MPH (20 knots; 10.4 m/s)
Visibility: 10 or more miles (16+ km)
Ceiling: at least 12,000 feet AGL
Clouds: scattered clouds at 6000 feet AGL
scattered clouds at 7500 feet AGL
Present Weather: automated observation with no human augmentation;
there may or may not be significant weather present at this time
KORL 281953Z AUTO 12011G20KT 10SM SCT060 SCT075 34/19 A3004 RMK AO2 SLP173 T03390194

Conditions at: KORL observed 28 April 2017  18:53 UTC
Temperature: 35.0°C (95°F)
Dewpoint: 17.8°C (64°F) [RH = 36%]
Pressure (altimeter): 30.05 inches Hg (1017.7 mb)
[Sea-level pressure: 1017.7 mb]
Winds: from the ESE (110 degrees) at 12 MPH (10 knots; 5.2 m/s)
gusting to 18 MPH (16 knots; 8.3 m/s)
Visibility: 10 or more miles (16+ km)
Ceiling: at least 12,000 feet AGL
Clouds: few clouds at 6500 feet AGL
Present Weather: no significant weather observed at this time
KORL 281853Z 11010G16KT 10SM FEW065 35/18 A3005 RMK AO2 SLP177 T03500178

Conditions at: KORL observed 28 April 2017  17:53 UTC
Temperature: 33.9°C (93°F)
Dewpoint: 18.3°C (65°F) [RH = 40%]
Pressure (altimeter): 30.06 inches Hg (1018.0 mb)
[Sea-level pressure: 1018.2 mb]
Winds: from the S (180 degrees) at 13 MPH (11 knots; 5.7 m/s)
gusting to 21 MPH (18 knots; 9.4 m/s)
Visibility: 10 or more miles (16+ km)
Ceiling: at least 12,000 feet AGL
Clouds: scattered clouds at 5500 feet AGL
Present Weather: no significant weather observed at this time
KORL 281753Z 18011G18KT 10SM SCT055 34/18 A3006 RMK AO2 SLP182 T03390183 10344 20239 58012

Conditions at: KORL observed 28 April 2017  16:53 UTC
Temperature: 33.3°C (92°F)
Dewpoint: 19.4°C (67°F) [RH = 44%]
Pressure (altimeter): 30.07 inches Hg (1018.4 mb)
[Sea-level pressure: 1018.6 mb]
Winds: from the ESE (110 degrees) at 9 MPH (8 knots; 4.2 m/s)
Visibility: 10 or more miles (16+ km)
Ceiling: at least 12,000 feet AGL
Clouds: few clouds at 4300 feet AGL
few clouds at 5500 feet AGL
Present Weather: no significant weather observed at this time
KORL 281653Z 11008KT 10SM FEW043 FEW055 33/19 A3007 RMK AO2 SLP186 T03330194

Conditions at: KORL observed 28 April 2017  15:53 UTC
Temperature: 31.7°C (89°F)
Dewpoint: 21.1°C (70°F) [RH = 54%]
Pressure (altimeter): 30.09 inches Hg (1019.0 mb)
[Sea-level pressure: 1019.2 mb]
Winds: from the S (190 degrees) at 12 MPH (10 knots; 5.2 m/s)
Visibility: 10 or more miles (16+ km)
Ceiling: at least 12,000 feet AGL
Clouds: few clouds at 3300 feet AGL
Present Weather: no significant weather observed at this time
KORL 281553Z 19010KT 10SM FEW033 32/21 A3009 RMK AO2 SLP192 T03170211